הכול
Cooma-Snowy Mountains Airport (Cooma, New South Wales) OOM מזג אוויר
|
Cooma, New South Wales (OOM / YCOM)
שמים בהירים
רוחות |
|
13 °C |
OOM Terminal Area Forecast
| Here is the undecoded forecast: 2026/09/04 01:31 YCOM 040131Z 0402/0414 30014KT 9999 FEW045 FM040800 32008KT CAVOK RMK FM041000 MOD TURB BLW 5000FT T 15 14 09 07 Q 1018 1017 1017 1017 |
Recent OOM METAR history
| Date | Time (AEST) | Flight Rules | Wind Dir. | Speed | Type | Height AGL (ft) | Visibility | Temp (°C) | Temp (°F) | Dew Point (°C) | Dew Point (°F) | Rel. Humid. | Pressure | Density Altitude | Remarks |
|---|---|---|---|---|---|---|---|---|---|---|---|---|---|---|---|
| 04-ספט | 12:00 | VFR | 310° | 16 kt | 10000 meters | 13° | 55° | 1° | 33° | 44% | 1019 mb | 3,408 ft | |||
| 04-ספט | 11:00 | VFR | 320° | 15 kt | 10000 meters | 13° | 55° | 2° | 35° | 47% | 1019 mb | 3,408 ft | |||
| 04-ספט | 10:00 | VFR | 310° | 13 kt | 10000 meters | 13° | 55° | 2° | 35° | 47% | 1020 mb | 3,378 ft | |||
| 04-ספט | 09:00 | VFR | 340° | 10 kt | 10000 meters | 12° | 53° | 2° | 35° | 50% | 1020 mb | 3,258 ft | |||
| 04-ספט | 08:00 | VFR | 50° | 6 kt | 10000 meters | 8° | 46° | 4° | 39° | 76% | 1020 mb | 2,778 ft | |||
| 04-ספט | 07:00 | VFR | 30° | 5 kt | 10000 meters | 1° | 33° | 0° | 32° | 93% | 1019 mb | 1,968 ft | |||
| 04-ספט | 06:00 | VFR | 40° | 3 kt | 10000 meters | -1° | 30° | -3° | 26° | 86% | 1019 mb | 1,728 ft | |||
| 04-ספט | 05:00 | VFR | 350° | 2 kt | 10000 meters | -1° | 30° | -3° | 26° | 86% | 1019 mb | 1,728 ft | |||
| 04-ספט | 04:00 | VFR | 20° | 3 kt | 10000 meters | 1° | 33° | -1° | 30° | 86% | 1018 mb | 1,997 ft | |||
| 04-ספט | 03:00 | VFR | Calm | 10000 meters | 3° | 37° | -1° | 30° | 75% | 1018 mb | 2,237 ft | ||||
| 04-ספט | 02:00 | VFR | 350° | 5 kt | 10000 meters | 7° | 44° | 2° | 35° | 70% | 1018 mb | 2,717 ft | |||
| 04-ספט | 01:00 | VFR | 30° | 4 kt | 10000 meters | 2° | 35° | 0° | 32° | 87% | 1018 mb | 2,117 ft | |||
| 04-ספט | 00:00 | VFR | 30° | 5 kt | 10000 meters | 1° | 33° | -2° | 28° | 80% | 1018 mb | 1,997 ft | |||
| 03-ספט | 23:00 | VFR | 340° | 5 kt | 10000 meters | 3° | 37° | 0° | 32° | 81% | 1018 mb | 2,237 ft | |||
| 03-ספט | 22:00 | VFR | 270° | 8 kt | 10000 meters | 5° | 41° | 1° | 33° | 75% | 1018 mb | 2,477 ft | |||
| 03-ספט | 21:00 | VFR | 220° | 4 kt | 10000 meters | 4° | 39° | 0° | 32° | 75% | 1018 mb | 2,357 ft | |||
| 03-ספט | 20:00 | VFR | 290° | 4 kt | 10000 meters | 5° | 41° | -1° | 30° | 65% | 1017 mb | 2,507 ft | |||
| 03-ספט | 19:00 | VFR | 280° | 7 kt | 10000 meters | 7° | 44° | -1° | 30° | 57% | 1016 mb | 2,776 ft | |||
| 03-ספט | 18:00 | VFR | 260° | 4 kt | 10000 meters | 10° | 50° | 0° | 32° | 50% | 1015 mb | 3,166 ft | |||
| 03-ספט | 17:00 | VFR | 290° | 9 kt | 10000 meters | 12° | 53° | 2° | 35° | 50% | 1014 mb | 3,435 ft | |||
| 03-ספט | 16:00 | VFR | 270° | 14 kt | 10000 meters | 14° | 57° | 1° | 33° | 41% | 1013 mb | 3,705 ft | |||
| 03-ספט | 15:00 | VFR | 280° | 9 kt | Few |
5,000 |
10000 meters | 16° | 60° | 3° | 37° | 42% | 1012 mb | 3,974 ft | Wind gusting to 19 KT |
| 03-ספט | 14:00 | VFR | 240° | 17 kt | 10000 meters | 17° | 62° | 3° | 37° | 39% | 1011 mb | 4,124 ft | |||
| 03-ספט | 13:00 | VFR | 240° | 15 kt | 10000 meters | 18° | 64° | 2° | 35° | 34% | 1011 mb | 4,244 ft |
כניסה לאתר
| אין תמיכה בדפדפן שלך. שדרג את הדפדפן שלך |
